sensor_id;sensor_type;location;lat;lon;timestamp;P1;durP1;ratioP1;P2;durP2;ratioP2
15958;SDS011;8078;47.822;9.402;2023-07-20T00:01:14;4.22;;;2.03;;
15958;SDS011;8078;47.822;9.402;2023-07-20T00:03:40;6.45;;;1.95;;
15958;SDS011;8078;47.822;9.402;2023-07-20T00:06:06;6.20;;;2.30;;
15958;SDS011;8078;47.822;9.402;2023-07-20T00:08:31;6.03;;;2.10;;
15958;SDS011;8078;47.822;9.402;2023-07-20T00:10:57;8.05;;;2.28;;
15958;SDS011;8078;47.822;9.402;2023-07-20T00:13:23;2.88;;;2.03;;
15958;SDS011;8078;47.822;9.402;2023-07-20T00:15:49;3.78;;;2.05;;
15958;SDS011;8078;47.822;9.402;2023-07-20T00:18:14;5.55;;;2.00;;
15958;SDS011;8078;47.822;9.402;2023-07-20T00:20:40;3.92;;;1.90;;
15958;SDS011;8078;47.822;9.402;2023-07-20T00:23:05;2.75;;;1.80;;
15958;SDS011;8078;47.822;9.402;2023-07-20T00:25:32;3.22;;;2.30;;
15958;SDS011;8078;47.822;9.402;2023-07-20T00:27:58;3.20;;;1.70;;
15958;SDS011;8078;47.822;9.402;2023-07-20T00:30:24;4.35;;;1.83;;
15958;SDS011;8078;47.822;9.402;2023-07-20T00:32:49;15.35;;;2.45;;
15958;SDS011;8078;47.822;9.402;2023-07-20T00:35:15;4.88;;;2.17;;
15958;SDS011;8078;47.822;9.402;2023-07-20T00:37:40;3.35;;;2.17;;
15958;SDS011;8078;47.822;9.402;2023-07-20T00:40:06;3.88;;;1.80;;
15958;SDS011;8078;47.822;9.402;2023-07-20T00:42:34;2.63;;;1.75;;
15958;SDS011;8078;47.822;9.402;2023-07-20T00:45:00;7.13;;;2.25;;
15958;SDS011;8078;47.822;9.402;2023-07-20T00:47:26;3.40;;;1.90;;
15958;SDS011;8078;47.822;9.402;2023-07-20T00:49:52;5.10;;;1.90;;
15958;SDS011;8078;47.822;9.402;2023-07-20T00:52:20;4.88;;;1.80;;
15958;SDS011;8078;47.822;9.402;2023-07-20T00:54:47;2.80;;;1.65;;
15958;SDS011;8078;47.822;9.402;2023-07-20T00:57:14;5.68;;;1.95;;
15958;SDS011;8078;47.822;9.402;2023-07-20T00:59:40;4.30;;;1.70;;
15958;SDS011;8078;47.822;9.402;2023-07-20T01:02:06;3.15;;;1.63;;
15958;SDS011;8078;47.822;9.402;2023-07-20T01:04:32;6.65;;;1.98;;
15958;SDS011;8078;47.822;9.402;2023-07-20T01:12:42;8.77;;;2.00;;
15958;SDS011;8078;47.822;9.402;2023-07-20T01:15:05;2.42;;;1.73;;
15958;SDS011;8078;47.822;9.402;2023-07-20T01:17:33;4.45;;;1.85;;
15958;SDS011;8078;47.822;9.402;2023-07-20T01:19:58;7.85;;;2.33;;
15958;SDS011;8078;47.822;9.402;2023-07-20T01:25:12;4.82;;;2.17;;
15958;SDS011;8078;47.822;9.402;2023-07-20T01:28:11;3.47;;;1.98;;
15958;SDS011;8078;47.822;9.402;2023-07-20T01:33:50;4.75;;;1.63;;
15958;SDS011;8078;47.822;9.402;2023-07-20T01:36:17;4.15;;;2.03;;
15958;SDS011;8078;47.822;9.402;2023-07-20T01:38:43;6.03;;;2.00;;
15958;SDS011;8078;47.822;9.402;2023-07-20T01:41:10;3.03;;;1.83;;
15958;SDS011;8078;47.822;9.402;2023-07-20T01:43:36;2.50;;;1.70;;
15958;SDS011;8078;47.822;9.402;2023-07-20T01:46:02;4.63;;;2.20;;
15958;SDS011;8078;47.822;9.402;2023-07-20T01:48:27;3.08;;;1.90;;
15958;SDS011;8078;47.822;9.402;2023-07-20T01:50:53;2.53;;;1.80;;
15958;SDS011;8078;47.822;9.402;2023-07-20T01:53:19;5.60;;;2.13;;
15958;SDS011;8078;47.822;9.402;2023-07-20T01:55:45;5.15;;;2.10;;
15958;SDS011;8078;47.822;9.402;2023-07-20T01:58:11;3.92;;;1.70;;
15958;SDS011;8078;47.822;9.402;2023-07-20T02:00:37;4.45;;;2.10;;
15958;SDS011;8078;47.822;9.402;2023-07-20T02:03:03;2.75;;;2.13;;
15958;SDS011;8078;47.822;9.402;2023-07-20T02:05:28;2.97;;;2.03;;
15958;SDS011;8078;47.822;9.402;2023-07-20T02:07:54;3.88;;;1.88;;
15958;SDS011;8078;47.822;9.402;2023-07-20T02:10:20;3.42;;;2.05;;
15958;SDS011;8078;47.822;9.402;2023-07-20T02:12:45;7.32;;;1.83;;
15958;SDS011;8078;47.822;9.402;2023-07-20T02:15:11;4.93;;;1.88;;
15958;SDS011;8078;47.822;9.402;2023-07-20T02:17:38;4.78;;;2.05;;
15958;SDS011;8078;47.822;9.402;2023-07-20T02:20:06;5.18;;;1.90;;
15958;SDS011;8078;47.822;9.402;2023-07-20T02:22:34;5.40;;;2.05;;
15958;SDS011;8078;47.822;9.402;2023-07-20T02:25:01;3.65;;;2.03;;
15958;SDS011;8078;47.822;9.402;2023-07-20T02:27:26;4.88;;;2.08;;
15958;SDS011;8078;47.822;9.402;2023-07-20T02:29:52;2.35;;;1.80;;
15958;SDS011;8078;47.822;9.402;2023-07-20T02:32:17;3.80;;;1.85;;
15958;SDS011;8078;47.822;9.402;2023-07-20T02:34:43;3.80;;;1.90;;
15958;SDS011;8078;47.822;9.402;2023-07-20T02:37:08;4.90;;;1.92;;
15958;SDS011;8078;47.822;9.402;2023-07-20T02:39:35;5.25;;;2.20;;
15958;SDS011;8078;47.822;9.402;2023-07-20T02:42:01;2.65;;;2.05;;
15958;SDS011;8078;47.822;9.402;2023-07-20T02:44:26;5.65;;;2.35;;
15958;SDS011;8078;47.822;9.402;2023-07-20T02:46:52;5.97;;;2.42;;
15958;SDS011;8078;47.822;9.402;2023-07-20T02:49:17;6.40;;;2.15;;
15958;SDS011;8078;47.822;9.402;2023-07-20T02:51:43;4.18;;;2.17;;
15958;SDS011;8078;47.822;9.402;2023-07-20T02:54:09;10.43;;;2.53;;
15958;SDS011;8078;47.822;9.402;2023-07-20T02:56:35;4.80;;;2.10;;
15958;SDS011;8078;47.822;9.402;2023-07-20T02:59:01;6.70;;;2.42;;
15958;SDS011;8078;47.822;9.402;2023-07-20T03:01:27;4.63;;;2.42;;
15958;SDS011;8078;47.822;9.402;2023-07-20T03:03:54;6.05;;;2.83;;
15958;SDS011;8078;47.822;9.402;2023-07-20T03:06:20;3.80;;;2.95;;
15958;SDS011;8078;47.822;9.402;2023-07-20T03:08:45;4.82;;;2.90;;
15958;SDS011;8078;47.822;9.402;2023-07-20T03:11:16;6.35;;;2.83;;
15958;SDS011;8078;47.822;9.402;2023-07-20T03:13:43;4.63;;;2.40;;
15958;SDS011;8078;47.822;9.402;2023-07-20T03:16:09;4.80;;;2.63;;
15958;SDS011;8078;47.822;9.402;2023-07-20T03:18:37;5.75;;;2.90;;
15958;SDS011;8078;47.822;9.402;2023-07-20T03:21:03;4.93;;;3.15;;
15958;SDS011;8078;47.822;9.402;2023-07-20T03:23:29;3.35;;;2.72;;
15958;SDS011;8078;47.822;9.402;2023-07-20T03:25:55;5.55;;;2.65;;
15958;SDS011;8078;47.822;9.402;2023-07-20T03:28:21;4.40;;;2.58;;
15958;SDS011;8078;47.822;9.402;2023-07-20T03:30:46;9.15;;;2.78;;
15958;SDS011;8078;47.822;9.402;2023-07-20T03:33:17;3.97;;;2.58;;
15958;SDS011;8078;47.822;9.402;2023-07-20T03:35:43;5.75;;;2.70;;
15958;SDS011;8078;47.822;9.402;2023-07-20T03:38:08;6.13;;;2.80;;
15958;SDS011;8078;47.822;9.402;2023-07-20T03:40:34;2.72;;;2.40;;
15958;SDS011;8078;47.822;9.402;2023-07-20T03:42:59;8.40;;;2.53;;
15958;SDS011;8078;47.822;9.402;2023-07-20T03:45:25;4.45;;;2.88;;
15958;SDS011;8078;47.822;9.402;2023-07-20T03:47:50;4.85;;;2.90;;
15958;SDS011;8078;47.822;9.402;2023-07-20T03:50:16;6.22;;;3.08;;
15958;SDS011;8078;47.822;9.402;2023-07-20T03:52:42;5.25;;;2.80;;
15958;SDS011;8078;47.822;9.402;2023-07-20T03:55:07;4.70;;;2.90;;
15958;SDS011;8078;47.822;9.402;2023-07-20T03:57:33;8.18;;;2.92;;
15958;SDS011;8078;47.822;9.402;2023-07-20T03:59:58;4.18;;;2.83;;
15958;SDS011;8078;47.822;9.402;2023-07-20T04:02:24;4.75;;;2.80;;
15958;SDS011;8078;47.822;9.402;2023-07-20T04:04:50;7.13;;;3.05;;
15958;SDS011;8078;47.822;9.402;2023-07-20T04:07:16;5.15;;;2.85;;
15958;SDS011;8078;47.822;9.402;2023-07-20T04:09:41;5.03;;;2.70;;
15958;SDS011;8078;47.822;9.402;2023-07-20T04:12:07;4.15;;;2.83;;
15958;SDS011;8078;47.822;9.402;2023-07-20T04:14:33;7.68;;;2.88;;
15958;SDS011;8078;47.822;9.402;2023-07-20T04:16:58;5.60;;;2.97;;
15958;SDS011;8078;47.822;9.402;2023-07-20T04:19:25;4.32;;;2.90;;
15958;SDS011;8078;47.822;9.402;2023-07-20T04:21:51;5.93;;;3.15;;
15958;SDS011;8078;47.822;9.402;2023-07-20T04:24:16;4.55;;;2.83;;
15958;SDS011;8078;47.822;9.402;2023-07-20T04:26:42;4.78;;;3.13;;
15958;SDS011;8078;47.822;9.402;2023-07-20T04:29:07;2.97;;;2.50;;
15958;SDS011;8078;47.822;9.402;2023-07-20T04:31:33;5.05;;;3.17;;
15958;SDS011;8078;47.822;9.402;2023-07-20T04:33:59;6.00;;;3.40;;
15958;SDS011;8078;47.822;9.402;2023-07-20T04:36:24;4.28;;;3.50;;
15958;SDS011;8078;47.822;9.402;2023-07-20T04:38:50;9.35;;;3.75;;
15958;SDS011;8078;47.822;9.402;2023-07-20T04:41:15;7.75;;;3.50;;
15958;SDS011;8078;47.822;9.402;2023-07-20T04:43:41;9.45;;;4.03;;
15958;SDS011;8078;47.822;9.402;2023-07-20T04:46:08;5.18;;;2.90;;
15958;SDS011;8078;47.822;9.402;2023-07-20T04:48:34;12.45;;;3.08;;
15958;SDS011;8078;47.822;9.402;2023-07-20T04:51:00;3.75;;;2.88;;
15958;SDS011;8078;47.822;9.402;2023-07-20T04:53:25;7.18;;;3.10;;
15958;SDS011;8078;47.822;9.402;2023-07-20T04:55:51;4.68;;;2.88;;
15958;SDS011;8078;47.822;9.402;2023-07-20T04:58:17;3.92;;;3.08;;
15958;SDS011;8078;47.822;9.402;2023-07-20T05:00:43;2.67;;;2.45;;
15958;SDS011;8078;47.822;9.402;2023-07-20T05:03:09;5.72;;;2.80;;
15958;SDS011;8078;47.822;9.402;2023-07-20T05:05:34;4.35;;;2.60;;
15958;SDS011;8078;47.822;9.402;2023-07-20T05:08:00;5.00;;;2.50;;
15958;SDS011;8078;47.822;9.402;2023-07-20T05:10:25;4.70;;;2.90;;
15958;SDS011;8078;47.822;9.402;2023-07-20T05:12:51;4.97;;;2.85;;
15958;SDS011;8078;47.822;9.402;2023-07-20T05:15:17;4.55;;;2.80;;
15958;SDS011;8078;47.822;9.402;2023-07-20T05:17:42;5.78;;;2.90;;
15958;SDS011;8078;47.822;9.402;2023-07-20T05:20:08;5.18;;;2.70;;
15958;SDS011;8078;47.822;9.402;2023-07-20T05:22:37;8.55;;;2.95;;
15958;SDS011;8078;47.822;9.402;2023-07-20T05:25:05;6.15;;;2.72;;
15958;SDS011;8078;47.822;9.402;2023-07-20T05:27:35;7.20;;;2.58;;
15958;SDS011;8078;47.822;9.402;2023-07-20T05:30:02;6.97;;;2.83;;
15958;SDS011;8078;47.822;9.402;2023-07-20T05:32:28;5.50;;;2.55;;
15958;SDS011;8078;47.822;9.402;2023-07-20T05:34:53;7.03;;;2.95;;
15958;SDS011;8078;47.822;9.402;2023-07-20T05:37:19;6.30;;;3.00;;
15958;SDS011;8078;47.822;9.402;2023-07-20T05:39:45;3.03;;;2.72;;
15958;SDS011;8078;47.822;9.402;2023-07-20T05:42:11;4.28;;;2.75;;
15958;SDS011;8078;47.822;9.402;2023-07-20T05:44:37;5.43;;;2.78;;
15958;SDS011;8078;47.822;9.402;2023-07-20T05:47:02;7.93;;;3.17;;
15958;SDS011;8078;47.822;9.402;2023-07-20T05:49:28;4.68;;;3.20;;
15958;SDS011;8078;47.822;9.402;2023-07-20T05:51:54;5.90;;;2.80;;
15958;SDS011;8078;47.822;9.402;2023-07-20T05:54:21;4.70;;;2.85;;
15958;SDS011;8078;47.822;9.402;2023-07-20T05:56:46;3.40;;;2.97;;
15958;SDS011;8078;47.822;9.402;2023-07-20T05:59:12;5.10;;;2.72;;
15958;SDS011;8078;47.822;9.402;2023-07-20T06:01:38;7.68;;;2.85;;
15958;SDS011;8078;47.822;9.402;2023-07-20T06:04:03;6.20;;;2.83;;
15958;SDS011;8078;47.822;9.402;2023-07-20T06:06:29;3.72;;;2.72;;
15958;SDS011;8078;47.822;9.402;2023-07-20T06:08:55;5.60;;;2.75;;
15958;SDS011;8078;47.822;9.402;2023-07-20T06:11:20;4.70;;;3.40;;
15958;SDS011;8078;47.822;9.402;2023-07-20T06:13:46;6.43;;;3.40;;
15958;SDS011;8078;47.822;9.402;2023-07-20T06:16:11;4.88;;;3.13;;
15958;SDS011;8078;47.822;9.402;2023-07-20T06:18:37;3.88;;;2.53;;
15958;SDS011;8078;47.822;9.402;2023-07-20T06:21:03;4.00;;;2.97;;
15958;SDS011;8078;47.822;9.402;2023-07-20T06:23:28;3.90;;;2.30;;
15958;SDS011;8078;47.822;9.402;2023-07-20T06:25:54;4.95;;;2.80;;
15958;SDS011;8078;47.822;9.402;2023-07-20T06:28:19;10.10;;;3.35;;
15958;SDS011;8078;47.822;9.402;2023-07-20T06:30:45;4.90;;;2.85;;
15958;SDS011;8078;47.822;9.402;2023-07-20T06:33:10;8.48;;;3.20;;
15958;SDS011;8078;47.822;9.402;2023-07-20T06:35:36;4.80;;;3.00;;
15958;SDS011;8078;47.822;9.402;2023-07-20T06:38:02;6.72;;;2.85;;
15958;SDS011;8078;47.822;9.402;2023-07-20T06:40:29;4.07;;;2.78;;
15958;SDS011;8078;47.822;9.402;2023-07-20T06:42:55;7.93;;;3.28;;
15958;SDS011;8078;47.822;9.402;2023-07-20T06:45:21;4.20;;;3.20;;
15958;SDS011;8078;47.822;9.402;2023-07-20T06:47:46;3.60;;;2.67;;
15958;SDS011;8078;47.822;9.402;2023-07-20T06:50:12;5.30;;;2.53;;
15958;SDS011;8078;47.822;9.402;2023-07-20T06:52:37;5.10;;;2.83;;
15958;SDS011;8078;47.822;9.402;2023-07-20T06:55:04;4.07;;;2.78;;
15958;SDS011;8078;47.822;9.402;2023-07-20T06:57:31;5.50;;;2.90;;
15958;SDS011;8078;47.822;9.402;2023-07-20T06:59:57;5.55;;;2.78;;
15958;SDS011;8078;47.822;9.402;2023-07-20T07:02:22;5.20;;;2.80;;
15958;SDS011;8078;47.822;9.402;2023-07-20T07:04:48;7.80;;;3.03;;
15958;SDS011;8078;47.822;9.402;2023-07-20T07:07:14;4.72;;;2.65;;
15958;SDS011;8078;47.822;9.402;2023-07-20T07:09:40;5.45;;;2.70;;
15958;SDS011;8078;47.822;9.402;2023-07-20T07:12:06;4.07;;;3.05;;
15958;SDS011;8078;47.822;9.402;2023-07-20T07:14:32;5.45;;;3.17;;
15958;SDS011;8078;47.822;9.402;2023-07-20T07:16:58;5.53;;;3.10;;
15958;SDS011;8078;47.822;9.402;2023-07-20T07:19:24;7.40;;;2.63;;
15958;SDS011;8078;47.822;9.402;2023-07-20T07:21:49;9.85;;;2.95;;
15958;SDS011;8078;47.822;9.402;2023-07-20T07:24:15;4.20;;;2.97;;
15958;SDS011;8078;47.822;9.402;2023-07-20T07:26:41;7.05;;;2.50;;
15958;SDS011;8078;47.822;9.402;2023-07-20T07:29:07;7.40;;;2.85;;
15958;SDS011;8078;47.822;9.402;2023-07-20T07:31:33;3.70;;;2.70;;
15958;SDS011;8078;47.822;9.402;2023-07-20T07:34:00;5.47;;;2.70;;
15958;SDS011;8078;47.822;9.402;2023-07-20T07:36:27;3.92;;;2.67;;
15958;SDS011;8078;47.822;9.402;2023-07-20T07:38:52;6.55;;;2.60;;
15958;SDS011;8078;47.822;9.402;2023-07-20T07:41:18;4.28;;;2.42;;
15958;SDS011;8078;47.822;9.402;2023-07-20T07:43:44;4.22;;;2.67;;
15958;SDS011;8078;47.822;9.402;2023-07-20T07:46:09;6.45;;;2.80;;
15958;SDS011;8078;47.822;9.402;2023-07-20T07:48:35;5.45;;;2.72;;
15958;SDS011;8078;47.822;9.402;2023-07-20T07:51:00;7.68;;;2.63;;
15958;SDS011;8078;47.822;9.402;2023-07-20T07:53:26;6.82;;;2.90;;
15958;SDS011;8078;47.822;9.402;2023-07-20T07:55:52;6.28;;;2.88;;
15958;SDS011;8078;47.822;9.402;2023-07-20T07:58:17;5.03;;;3.20;;
15958;SDS011;8078;47.822;9.402;2023-07-20T08:00:43;6.07;;;3.00;;
15958;SDS011;8078;47.822;9.402;2023-07-20T08:03:09;4.00;;;3.20;;
15958;SDS011;8078;47.822;9.402;2023-07-20T08:05:35;4.47;;;2.70;;
15958;SDS011;8078;47.822;9.402;2023-07-20T08:08:03;5.55;;;2.90;;
15958;SDS011;8078;47.822;9.402;2023-07-20T08:10:29;4.63;;;2.75;;
15958;SDS011;8078;47.822;9.402;2023-07-20T08:12:55;6.63;;;2.95;;
15958;SDS011;8078;47.822;9.402;2023-07-20T08:15:21;4.95;;;2.72;;
15958;SDS011;8078;47.822;9.402;2023-07-20T08:17:47;6.78;;;3.08;;
15958;SDS011;8078;47.822;9.402;2023-07-20T08:20:13;4.18;;;2.72;;
15958;SDS011;8078;47.822;9.402;2023-07-20T08:22:41;4.13;;;2.70;;
15958;SDS011;8078;47.822;9.402;2023-07-20T08:25:07;5.20;;;2.70;;
15958;SDS011;8078;47.822;9.402;2023-07-20T08:27:33;4.88;;;2.45;;
15958;SDS011;8078;47.822;9.402;2023-07-20T08:29:59;5.97;;;2.85;;
15958;SDS011;8078;47.822;9.402;2023-07-20T08:32:25;3.92;;;2.60;;
15958;SDS011;8078;47.822;9.402;2023-07-20T08:34:51;8.43;;;3.10;;
15958;SDS011;8078;47.822;9.402;2023-07-20T08:37:16;4.78;;;2.70;;
15958;SDS011;8078;47.822;9.402;2023-07-20T08:39:42;6.05;;;2.50;;
15958;SDS011;8078;47.822;9.402;2023-07-20T08:42:07;5.88;;;3.00;;
15958;SDS011;8078;47.822;9.402;2023-07-20T08:44:36;3.78;;;2.72;;
15958;SDS011;8078;47.822;9.402;2023-07-20T08:47:03;5.95;;;2.60;;
15958;SDS011;8078;47.822;9.402;2023-07-20T08:49:33;4.82;;;2.38;;
15958;SDS011;8078;47.822;9.402;2023-07-20T08:51:59;3.42;;;2.40;;
15958;SDS011;8078;47.822;9.402;2023-07-20T08:54:27;7.15;;;2.13;;
15958;SDS011;8078;47.822;9.402;2023-07-20T08:56:58;5.30;;;2.53;;
15958;SDS011;8078;47.822;9.402;2023-07-20T08:59:28;7.00;;;2.60;;
15958;SDS011;8078;47.822;9.402;2023-07-20T09:01:56;6.07;;;2.42;;
15958;SDS011;8078;47.822;9.402;2023-07-20T09:04:23;6.18;;;2.60;;
15958;SDS011;8078;47.822;9.402;2023-07-20T09:06:49;3.92;;;2.53;;
15958;SDS011;8078;47.822;9.402;2023-07-20T09:09:15;5.80;;;2.72;;
15958;SDS011;8078;47.822;9.402;2023-07-20T09:11:41;9.02;;;2.78;;
15958;SDS011;8078;47.822;9.402;2023-07-20T09:14:07;3.40;;;2.20;;
15958;SDS011;8078;47.822;9.402;2023-07-20T09:16:49;4.88;;;2.60;;
15958;SDS011;8078;47.822;9.402;2023-07-20T09:19:19;5.35;;;2.30;;
15958;SDS011;8078;47.822;9.402;2023-07-20T09:21:49;4.57;;;2.20;;
15958;SDS011;8078;47.822;9.402;2023-07-20T09:24:17;6.78;;;2.58;;
15958;SDS011;8078;47.822;9.402;2023-07-20T09:26:44;4.28;;;2.17;;
15958;SDS011;8078;47.822;9.402;2023-07-20T09:29:13;5.72;;;2.60;;
15958;SDS011;8078;47.822;9.402;2023-07-20T09:31:38;4.95;;;2.47;;
15958;SDS011;8078;47.822;9.402;2023-07-20T09:34:07;5.18;;;2.20;;
15958;SDS011;8078;47.822;9.402;2023-07-20T09:36:33;2.60;;;2.03;;
15958;SDS011;8078;47.822;9.402;2023-07-20T09:39:03;4.05;;;2.40;;
15958;SDS011;8078;47.822;9.402;2023-07-20T09:41:29;8.70;;;2.40;;
15958;SDS011;8078;47.822;9.402;2023-07-20T09:44:04;3.17;;;2.35;;
15958;SDS011;8078;47.822;9.402;2023-07-20T09:46:45;5.38;;;2.45;;
15958;SDS011;8078;47.822;9.402;2023-07-20T09:49:12;4.13;;;2.47;;
15958;SDS011;8078;47.822;9.402;2023-07-20T09:51:39;3.78;;;2.40;;
15958;SDS011;8078;47.822;9.402;2023-07-20T09:54:05;4.63;;;2.53;;
15958;SDS011;8078;47.822;9.402;2023-07-20T09:56:31;2.42;;;2.03;;
15958;SDS011;8078;47.822;9.402;2023-07-20T09:58:58;5.75;;;2.00;;
15958;SDS011;8078;47.822;9.402;2023-07-20T10:01:24;4.18;;;2.40;;
15958;SDS011;8078;47.822;9.402;2023-07-20T10:03:53;3.70;;;2.15;;
15958;SDS011;8078;47.822;9.402;2023-07-20T10:06:23;3.88;;;2.22;;
15958;SDS011;8078;47.822;9.402;2023-07-20T10:08:50;4.03;;;2.08;;
15958;SDS011;8078;47.822;9.402;2023-07-20T10:11:18;4.70;;;2.28;;
15958;SDS011;8078;47.822;9.402;2023-07-20T10:13:46;4.47;;;2.38;;
15958;SDS011;8078;47.822;9.402;2023-07-20T10:16:22;6.47;;;2.60;;
15958;SDS011;8078;47.822;9.402;2023-07-20T10:19:07;7.13;;;2.35;;
15958;SDS011;8078;47.822;9.402;2023-07-20T10:21:47;4.35;;;2.20;;
15958;SDS011;8078;47.822;9.402;2023-07-20T10:24:16;4.95;;;2.38;;
15958;SDS011;8078;47.822;9.402;2023-07-20T10:26:43;3.33;;;2.63;;
15958;SDS011;8078;47.822;9.402;2023-07-20T10:29:08;2.90;;;2.22;;
15958;SDS011;8078;47.822;9.402;2023-07-20T10:31:35;6.90;;;2.40;;
15958;SDS011;8078;47.822;9.402;2023-07-20T10:34:02;2.72;;;2.25;;
15958;SDS011;8078;47.822;9.402;2023-07-20T10:36:28;3.67;;;2.25;;
15958;SDS011;8078;47.822;9.402;2023-07-20T10:38:54;3.90;;;2.38;;
15958;SDS011;8078;47.822;9.402;2023-07-20T10:44:04;5.47;;;2.30;;
15958;SDS011;8078;47.822;9.402;2023-07-20T10:46:41;5.60;;;2.33;;
15958;SDS011;8078;47.822;9.402;2023-07-20T10:49:09;3.58;;;2.13;;
15958;SDS011;8078;47.822;9.402;2023-07-20T10:51:39;3.35;;;2.15;;
15958;SDS011;8078;47.822;9.402;2023-07-20T10:54:32;5.13;;;2.33;;
15958;SDS011;8078;47.822;9.402;2023-07-20T10:56:55;4.93;;;2.17;;
15958;SDS011;8078;47.822;9.402;2023-07-20T11:01:54;4.88;;;2.33;;
15958;SDS011;8078;47.822;9.402;2023-07-20T11:04:37;3.80;;;2.45;;
15958;SDS011;8078;47.822;9.402;2023-07-20T11:07:04;3.03;;;2.25;;
15958;SDS011;8078;47.822;9.402;2023-07-20T11:09:33;4.32;;;2.28;;
15958;SDS011;8078;47.822;9.402;2023-07-20T11:12:13;4.13;;;2.20;;
15958;SDS011;8078;47.822;9.402;2023-07-20T11:14:43;2.90;;;2.20;;
15958;SDS011;8078;47.822;9.402;2023-07-20T11:17:19;4.03;;;2.03;;
15958;SDS011;8078;47.822;9.402;2023-07-20T11:19:55;5.72;;;2.60;;
15958;SDS011;8078;47.822;9.402;2023-07-20T11:22:26;3.35;;;2.00;;
15958;SDS011;8078;47.822;9.402;2023-07-20T11:24:55;6.05;;;2.35;;
15958;SDS011;8078;47.822;9.402;2023-07-20T11:27:21;4.72;;;2.53;;
15958;SDS011;8078;47.822;9.402;2023-07-20T11:29:47;2.67;;;2.25;;
15958;SDS011;8078;47.822;9.402;2023-07-20T11:32:20;3.42;;;2.30;;
15958;SDS011;8078;47.822;9.402;2023-07-20T11:34:47;2.75;;;2.05;;
15958;SDS011;8078;47.822;9.402;2023-07-20T11:37:13;8.57;;;3.60;;
15958;SDS011;8078;47.822;9.402;2023-07-20T11:39:38;2.50;;;2.30;;
15958;SDS011;8078;47.822;9.402;2023-07-20T11:42:05;6.10;;;2.53;;
15958;SDS011;8078;47.822;9.402;2023-07-20T11:44:31;4.05;;;2.28;;
15958;SDS011;8078;47.822;9.402;2023-07-20T11:49:30;3.35;;;2.20;;
15958;SDS011;8078;47.822;9.402;2023-07-20T11:52:00;3.90;;;2.25;;
15958;SDS011;8078;47.822;9.402;2023-07-20T11:54:26;2.97;;;2.03;;
15958;SDS011;8078;47.822;9.402;2023-07-20T11:56:55;3.95;;;2.05;;
15958;SDS011;8078;47.822;9.402;2023-07-20T11:59:21;3.80;;;2.17;;
15958;SDS011;8078;47.822;9.402;2023-07-20T12:01:47;4.20;;;1.90;;
15958;SDS011;8078;47.822;9.402;2023-07-20T12:04:12;5.47;;;2.15;;
15958;SDS011;8078;47.822;9.402;2023-07-20T12:06:38;3.80;;;2.22;;
15958;SDS011;8078;47.822;9.402;2023-07-20T12:09:04;3.63;;;2.03;;
15958;SDS011;8078;47.822;9.402;2023-07-20T12:11:30;4.57;;;2.20;;
15958;SDS011;8078;47.822;9.402;2023-07-20T12:13:57;5.55;;;2.30;;
15958;SDS011;8078;47.822;9.402;2023-07-20T12:16:26;2.90;;;1.95;;
15958;SDS011;8078;47.822;9.402;2023-07-20T12:18:59;3.50;;;2.28;;
15958;SDS011;8078;47.822;9.402;2023-07-20T12:21:25;4.18;;;2.22;;
15958;SDS011;8078;47.822;9.402;2023-07-20T12:23:51;3.60;;;2.15;;
15958;SDS011;8078;47.822;9.402;2023-07-20T12:26:16;6.43;;;2.33;;
15958;SDS011;8078;47.822;9.402;2023-07-20T12:28:42;5.85;;;2.30;;
15958;SDS011;8078;47.822;9.402;2023-07-20T12:31:08;4.25;;;2.33;;
15958;SDS011;8078;47.822;9.402;2023-07-20T12:33:35;6.03;;;2.10;;
15958;SDS011;8078;47.822;9.402;2023-07-20T12:36:02;4.90;;;2.00;;
15958;SDS011;8078;47.822;9.402;2023-07-20T12:38:28;2.95;;;2.08;;
15958;SDS011;8078;47.822;9.402;2023-07-20T12:40:53;5.07;;;2.28;;
15958;SDS011;8078;47.822;9.402;2023-07-20T12:43:23;4.15;;;2.00;;
15958;SDS011;8078;47.822;9.402;2023-07-20T12:45:49;3.53;;;2.05;;
15958;SDS011;8078;47.822;9.402;2023-07-20T12:48:14;4.60;;;2.00;;
15958;SDS011;8078;47.822;9.402;2023-07-20T12:50:40;6.35;;;2.10;;
15958;SDS011;8078;47.822;9.402;2023-07-20T12:53:05;2.92;;;2.25;;
15958;SDS011;8078;47.822;9.402;2023-07-20T12:55:32;3.85;;;1.98;;
15958;SDS011;8078;47.822;9.402;2023-07-20T12:57:58;6.03;;;2.10;;
15958;SDS011;8078;47.822;9.402;2023-07-20T13:00:23;2.78;;;1.92;;
15958;SDS011;8078;47.822;9.402;2023-07-20T13:02:49;4.20;;;2.13;;
15958;SDS011;8078;47.822;9.402;2023-07-20T13:05:15;2.83;;;2.05;;
15958;SDS011;8078;47.822;9.402;2023-07-20T13:07:41;3.67;;;2.30;;
15958;SDS011;8078;47.822;9.402;2023-07-20T13:10:08;3.30;;;2.38;;
15958;SDS011;8078;47.822;9.402;2023-07-20T13:12:34;5.65;;;2.20;;
15958;SDS011;8078;47.822;9.402;2023-07-20T13:15:05;2.20;;;2.00;;
15958;SDS011;8078;47.822;9.402;2023-07-20T13:17:32;4.68;;;2.28;;
15958;SDS011;8078;47.822;9.402;2023-07-20T13:19:58;6.68;;;2.30;;
15958;SDS011;8078;47.822;9.402;2023-07-20T13:22:24;6.10;;;2.25;;
15958;SDS011;8078;47.822;9.402;2023-07-20T13:24:49;3.53;;;2.25;;
15958;SDS011;8078;47.822;9.402;2023-07-20T13:27:18;4.47;;;2.25;;
15958;SDS011;8078;47.822;9.402;2023-07-20T13:29:44;5.90;;;2.15;;
15958;SDS011;8078;47.822;9.402;2023-07-20T13:32:12;2.90;;;2.20;;
15958;SDS011;8078;47.822;9.402;2023-07-20T13:34:39;5.00;;;2.20;;
15958;SDS011;8078;47.822;9.402;2023-07-20T13:37:05;6.07;;;2.42;;
15958;SDS011;8078;47.822;9.402;2023-07-20T13:39:31;5.65;;;2.10;;
15958;SDS011;8078;47.822;9.402;2023-07-20T13:41:57;4.25;;;1.98;;
15958;SDS011;8078;47.822;9.402;2023-07-20T13:44:22;4.03;;;2.00;;
15958;SDS011;8078;47.822;9.402;2023-07-20T13:46:48;3.90;;;2.15;;
15958;SDS011;8078;47.822;9.402;2023-07-20T13:49:14;5.15;;;2.30;;
15958;SDS011;8078;47.822;9.402;2023-07-20T13:51:41;3.63;;;2.00;;
15958;SDS011;8078;47.822;9.402;2023-07-20T13:54:07;7.82;;;2.75;;
15958;SDS011;8078;47.822;9.402;2023-07-20T13:56:32;3.75;;;1.88;;
15958;SDS011;8078;47.822;9.402;2023-07-20T13:58:58;3.88;;;1.75;;
15958;SDS011;8078;47.822;9.402;2023-07-20T14:01:24;2.00;;;1.80;;
15958;SDS011;8078;47.822;9.402;2023-07-20T14:03:50;4.00;;;2.30;;
15958;SDS011;8078;47.822;9.402;2023-07-20T14:06:16;4.60;;;2.20;;
15958;SDS011;8078;47.822;9.402;2023-07-20T14:08:42;1.67;;;1.58;;
15958;SDS011;8078;47.822;9.402;2023-07-20T14:11:11;2.67;;;2.13;;
15958;SDS011;8078;47.822;9.402;2023-07-20T14:13:40;3.22;;;1.92;;
15958;SDS011;8078;47.822;9.402;2023-07-20T14:16:06;3.95;;;1.95;;
15958;SDS011;8078;47.822;9.402;2023-07-20T14:18:32;5.13;;;2.10;;
15958;SDS011;8078;47.822;9.402;2023-07-20T14:20:58;3.30;;;1.98;;
15958;SDS011;8078;47.822;9.402;2023-07-20T14:23:24;3.03;;;2.00;;
15958;SDS011;8078;47.822;9.402;2023-07-20T14:25:49;4.20;;;2.03;;
15958;SDS011;8078;47.822;9.402;2023-07-20T14:28:15;3.35;;;1.77;;
15958;SDS011;8078;47.822;9.402;2023-07-20T14:30:41;3.05;;;2.08;;
15958;SDS011;8078;47.822;9.402;2023-07-20T14:33:07;3.75;;;2.10;;
15958;SDS011;8078;47.822;9.402;2023-07-20T14:35:33;3.78;;;1.90;;
15958;SDS011;8078;47.822;9.402;2023-07-20T14:37:59;3.53;;;1.80;;
15958;SDS011;8078;47.822;9.402;2023-07-20T14:40:25;3.88;;;2.08;;
15958;SDS011;8078;47.822;9.402;2023-07-20T14:42:51;4.05;;;2.20;;
15958;SDS011;8078;47.822;9.402;2023-07-20T14:45:17;3.15;;;1.80;;
15958;SDS011;8078;47.822;9.402;2023-07-20T14:47:43;3.83;;;1.83;;
15958;SDS011;8078;47.822;9.402;2023-07-20T14:50:08;2.88;;;1.90;;
15958;SDS011;8078;47.822;9.402;2023-07-20T14:52:35;4.20;;;1.90;;
15958;SDS011;8078;47.822;9.402;2023-07-20T14:55:00;3.55;;;2.30;;
15958;SDS011;8078;47.822;9.402;2023-07-20T14:57:26;2.10;;;1.80;;
15958;SDS011;8078;47.822;9.402;2023-07-20T14:59:51;2.42;;;1.90;;
15958;SDS011;8078;47.822;9.402;2023-07-20T15:02:17;4.57;;;2.10;;
15958;SDS011;8078;47.822;9.402;2023-07-20T15:04:47;5.00;;;2.00;;
15958;SDS011;8078;47.822;9.402;2023-07-20T15:07:17;3.50;;;2.20;;
15958;SDS011;8078;47.822;9.402;2023-07-20T15:09:43;4.07;;;2.03;;
15958;SDS011;8078;47.822;9.402;2023-07-20T15:12:10;3.72;;;1.90;;
15958;SDS011;8078;47.822;9.402;2023-07-20T15:14:35;6.10;;;1.90;;
15958;SDS011;8078;47.822;9.402;2023-07-20T15:17:04;4.25;;;2.00;;